South Webster, Ohio
Current Conditions -  °F | °C
As of 6:55 AM on Saturday 01 Nov 2014 (Local Time) from KDWU Reporting Station
Overcast Overcast  
Wind Chill: 34°   Ceiling: 1300
Heat Index: 39°   Visibility: 10mi
Dew Point: 34°   Wind: 7mph
Humidity: 81%   Direction: 340°NNW
Pressure: 29.98"   Gusts: NA
Location:  38.81°N, 82.73°W
Report Text: KDWU 011055Z AUTO 34006KT 320V030 10SM OVC013 04/01 A2998 RMK AO1
Loading
Personal Weather Stations






























Interactive Weather Map
Tropical Storm Tracking
New forecast layout! Learn more

10-Day Weather Forecast

Advertisements
Track Severe Weather on mobile